createdAt,value
2018-07-31T00:08:04.544Z,21.2
2018-07-31T00:18:18.311Z,21
2018-07-31T00:28:32.218Z,20.7
2018-07-31T00:38:46.180Z,20.9
2018-07-31T00:49:01.528Z,21
2018-07-31T00:59:16.708Z,21.8
2018-07-31T01:09:31.297Z,21.5
2018-07-31T01:19:45.730Z,21.4
2018-07-31T01:29:59.730Z,21.2
2018-07-31T01:40:13.583Z,21.3
2018-07-31T02:00:43.788Z,21.7
2018-07-31T02:10:58.478Z,21.5
2018-07-31T02:21:13.263Z,21.2
2018-07-31T02:31:28.660Z,20.9
2018-07-31T02:41:43.194Z,20.7
2018-07-31T02:51:58.113Z,21
2018-07-31T03:02:12.738Z,20.9
2018-07-31T03:12:26.664Z,20.7
2018-07-31T03:22:41.330Z,20.6
2018-07-31T03:32:56.959Z,20.3
2018-07-31T03:43:11.875Z,20.1
2018-07-31T03:53:26.452Z,19.6
2018-07-31T04:03:40.016Z,20
2018-07-31T04:13:54.301Z,20
2018-07-31T04:24:09.992Z,19.8
2018-07-31T04:34:25.443Z,19.7
2018-07-31T04:44:39.510Z,19.6
2018-07-31T04:54:54.134Z,19.8
2018-07-31T05:05:09.300Z,19.9
2018-07-31T05:15:23.644Z,20.2
2018-07-31T05:25:39.333Z,20.6
2018-07-31T05:35:54.194Z,20.9
2018-07-31T05:46:08.817Z,21.2
2018-07-31T05:56:23.947Z,21.9
2018-07-31T06:06:39.700Z,21.3
2018-07-31T06:16:54.312Z,21.1
2018-07-31T06:27:08.915Z,21.3
2018-07-31T06:37:23.992Z,22.4
2018-07-31T06:47:37.720Z,22.8
2018-07-31T06:57:51.532Z,24.7
2018-07-31T07:08:06.053Z,25.4
2018-07-31T07:18:21.398Z,25.6
2018-07-31T07:28:36.205Z,25.8
2018-07-31T07:38:50.346Z,26.3
2018-07-31T07:49:05.872Z,27.2
2018-07-31T07:59:20.368Z,27.8
2018-07-31T08:09:34.667Z,27.6
2018-07-31T08:19:49.036Z,28.1
2018-07-31T08:30:04.002Z,29
2018-07-31T08:40:19.459Z,30.3
2018-07-31T09:00:48.833Z,32.1
2018-07-31T09:11:04.537Z,31.2
2018-07-31T09:21:19.479Z,29.5
2018-07-31T09:31:33.584Z,30.1
2018-07-31T09:41:47.837Z,30.1
2018-07-31T09:52:03.530Z,30.1
2018-07-31T10:02:19.776Z,31.3
2018-07-31T10:12:35.127Z,31.2
2018-07-31T10:22:49.699Z,30.2
2018-07-31T10:33:05.142Z,31.5
2018-07-31T10:43:20.623Z,31.3
2018-07-31T10:53:34.634Z,30.1
2018-07-31T11:03:50.169Z,31.5
2018-07-31T11:14:06.009Z,31.8
2018-07-31T11:24:21.908Z,32.3
2018-07-31T11:34:36.532Z,31.9
2018-07-31T11:44:52.457Z,32.5
2018-07-31T11:55:08.279Z,32.8
2018-07-31T12:05:23.946Z,32.6
2018-07-31T12:15:38.026Z,32.9
2018-07-31T12:25:52.473Z,32.5
2018-07-31T12:36:07.198Z,31.2
2018-07-31T12:46:22.930Z,31.7
2018-07-31T12:56:38.205Z,32.4
2018-07-31T13:06:52.187Z,33.9
2018-07-31T13:17:07.367Z,33.3
2018-07-31T13:27:23.179Z,32.5
2018-07-31T13:37:37.935Z,31.4
2018-07-31T13:47:52.988Z,32
2018-07-31T13:58:07.370Z,31.9
2018-07-31T14:08:22.875Z,32.7
2018-07-31T14:18:38.163Z,32.4
2018-07-31T14:28:52.532Z,30.7
2018-07-31T14:39:06.523Z,32.7
2018-07-31T14:49:22.375Z,31.4
2018-07-31T14:59:36.637Z,33.1
2018-07-31T15:09:52.293Z,33
2018-07-31T15:30:21.724Z,31.5
2018-07-31T15:40:37.360Z,30.2
2018-07-31T15:50:53.332Z,31.6
2018-07-31T16:01:08.001Z,30.3
2018-07-31T16:11:23.034Z,32.3
2018-07-31T16:21:38.536Z,32.5
2018-07-31T16:31:52.699Z,32.2
2018-07-31T16:42:07.279Z,31.5
2018-07-31T16:52:21.801Z,30.7
2018-07-31T17:02:36.533Z,30.4
2018-07-31T17:12:51.250Z,29
2018-07-31T17:23:06.572Z,29.7
2018-07-31T17:33:20.997Z,29.2
2018-07-31T17:43:35.732Z,28.3
2018-07-31T17:53:49.693Z,27.8
2018-07-31T18:04:03.545Z,27.1
2018-07-31T18:14:19.715Z,26.7
2018-07-31T18:24:34.881Z,26.4
2018-07-31T18:34:50.542Z,26.3
2018-07-31T18:45:06.163Z,26
2018-07-31T18:55:21.687Z,25.8
2018-07-31T19:05:36.374Z,25.3
2018-07-31T19:15:50.963Z,25
2018-07-31T19:26:05.771Z,24.9
2018-07-31T19:36:20.409Z,24.9
2018-07-31T19:46:35.674Z,24.6
2018-07-31T19:56:49.895Z,24.3
2018-07-31T20:07:05.123Z,23.8
2018-07-31T20:17:19.979Z,23.8
2018-07-31T20:27:34.584Z,23.9
2018-07-31T20:37:49.585Z,23.6
2018-07-31T20:48:04.938Z,23.4
2018-07-31T20:58:18.982Z,23.2
2018-07-31T21:08:33.360Z,22.8
2018-07-31T21:18:49.244Z,22.8
2018-07-31T21:29:04.271Z,22.6
2018-07-31T21:39:18.127Z,22.2
2018-07-31T21:49:32.970Z,21.9
2018-07-31T21:59:46.965Z,21.8
2018-07-31T22:10:01.942Z,21.6
2018-07-31T22:20:16.985Z,21.6
2018-07-31T22:30:32.238Z,21.3
2018-07-31T22:40:47.897Z,21.1
2018-07-31T22:51:02.431Z,21
2018-07-31T23:01:16.898Z,20.9
2018-07-31T23:11:30.762Z,20.4
2018-07-31T23:21:45.375Z,19.7
2018-07-31T23:32:00.191Z,19.9
2018-07-31T23:42:14.297Z,19.6
2018-07-31T23:52:30.010Z,19
